Aérodrome :
LOGIN :

S'inscrire | Disclaimer

   EN    FR    IT 

 










Légende :    VFR   VFR Marginal   IFR   IFR Intensif   IFR Très Intensif
Visi : 
Plafond : 
>= 8 km
>= 3000ft
5 à 8 km
1000 à 3000 ft
1500m à 5 km
500 à 1000 ft
800 à 1500m
200 à 500 ft
< 800m
< 200 ft
Symboles :   Orages  Brouillard  Fortes neiges  Fortes précipitations  Vent > 20 kt
SIGMETs :   Divers  Orages  Givrage  Turbulence  Onde Orograph.  Cendres Volcan.






- Altitude de l'aérodrome : 1768 ft


LEHC - Huesca Pirineos

DERNIER METAR :
  • 250500Z AUTO VRB02KT 9999 FEW060 15/15 Q1026

METARs EXPIRÉS :
  • 250430Z AUTO VRB02KT 9999 -RA SCT066 16/15 Q1026
  • 250400Z AUTO 09004KT 9999 BKN066 16/15 Q1027
  • 250330Z AUTO 10004KT 9999 SCT065 16/15 Q1026
  • 250300Z AUTO 10005KT 070V130 9999 SCT035/// ///CB 16/15 Q1026
  • 250230Z AUTO VRB02KT 9999 VCTS FEW036/// ///CB 16/15 Q1027

TAF TAF LEHC
Valide du 25 à 03h jusqu'au 26 à 03h UTC


250200Z 2503/2603 09010KT 9999 FEW050 TX26/2513Z TN16/2506Z
BECMG 2503/2505 VRB04KT
PROB40
TEMPO 2516/2520 3000 TSRA FEW040CB



MET'MAP, la Météo Aéronautique d'un coup d'oeil ! - Copyright ORBIFLY Décembre 2007 - Disclaimer

ORBIFLY MET'MAP TEAM :

Programmation & Développement : Alexandra Zaïnal
Sur une idée originale de : Baudouin d'Aumeries
Assistance à la programmation : Marc-Olivier Méhu
Soutien technique & logistique : Manuel Goepfert

Contact : metmap@orbifly.com




SOURCES & CREDITS :

   NOAA